createdAt,value
2019-04-01T00:00:42.790Z,76.80
2019-04-01T00:03:11.954Z,76.80
2019-04-01T00:05:40.833Z,76.80
2019-04-01T00:08:09.871Z,76.60
2019-04-01T00:10:38.686Z,76.70
2019-04-01T00:13:07.523Z,76.60
2019-04-01T00:15:36.555Z,76.50
2019-04-01T00:18:05.417Z,76.60
2019-04-01T00:20:34.530Z,76.70
2019-04-01T00:23:03.623Z,76.70
2019-04-01T00:25:33.339Z,76.60
2019-04-01T00:28:02.159Z,76.80
2019-04-01T00:30:31.248Z,76.70
2019-04-01T00:33:00.431Z,76.70
2019-04-01T00:35:29.287Z,76.70
2019-04-01T00:37:58.614Z,76.80
2019-04-01T00:40:27.710Z,76.70
2019-04-01T00:43:20.364Z,76.70
2019-04-01T00:45:50.222Z,76.80
2019-04-01T00:48:19.070Z,76.80
2019-04-01T00:50:47.866Z,76.70
2019-04-01T00:53:18.103Z,76.80
2019-04-01T00:55:47.580Z,76.70
2019-04-01T00:58:16.657Z,76.70
2019-04-01T01:00:45.529Z,76.80
2019-04-01T01:03:14.683Z,76.80
2019-04-01T01:05:43.757Z,76.80
2019-04-01T01:08:12.524Z,76.70
2019-04-01T01:10:41.436Z,76.80
2019-04-01T01:13:10.539Z,76.80
2019-04-01T01:15:39.339Z,76.80
2019-04-01T01:18:08.128Z,77.00
2019-04-01T01:20:37.000Z,76.90
2019-04-01T01:23:05.781Z,76.90
2019-04-01T01:25:34.990Z,77.10
2019-04-01T01:28:03.915Z,76.80
2019-04-01T01:30:42.392Z,77.00
2019-04-01T01:33:11.509Z,77.00
2019-04-01T01:35:41.004Z,76.90
2019-04-01T01:38:10.524Z,77.10
2019-04-01T01:40:39.718Z,77.10
2019-04-01T01:43:08.803Z,77.10
2019-04-01T01:45:37.884Z,77.00
2019-04-01T01:48:07.015Z,77.20
2019-04-01T01:50:36.110Z,77.00
2019-04-01T01:53:04.979Z,77.00
2019-04-01T01:55:34.482Z,77.00
2019-04-01T01:58:04.206Z,77.20
2019-04-01T02:00:34.052Z,77.30
2019-04-01T02:03:03.160Z,77.10
2019-04-01T02:05:32.200Z,77.10
2019-04-01T02:08:01.004Z,77.10
2019-04-01T02:10:30.092Z,77.20
2019-04-01T02:12:59.295Z,77.10
2019-04-01T02:15:28.380Z,77.20
2019-04-01T02:17:57.687Z,77.20
2019-04-01T02:20:26.444Z,77.20
2019-04-01T02:22:55.523Z,77.30
2019-04-01T02:25:24.314Z,77.20
2019-04-01T02:27:53.353Z,77.20
2019-04-01T02:30:22.446Z,77.30
2019-04-01T02:32:51.496Z,77.30
2019-04-01T02:35:20.642Z,77.40
2019-04-01T02:37:49.835Z,77.20
2019-04-01T02:40:21.906Z,77.30
2019-04-01T02:42:50.108Z,77.30
2019-04-01T02:45:19.098Z,77.40
2019-04-01T02:47:47.850Z,77.60
2019-04-01T02:50:16.693Z,77.40
2019-04-01T02:52:45.708Z,77.50
2019-04-01T02:55:14.489Z,77.50
2019-04-01T02:57:43.598Z,77.50
2019-04-01T03:00:13.417Z,77.50
2019-04-01T03:02:42.800Z,77.60
2019-04-01T03:05:11.730Z,77.60
2019-04-01T03:07:40.931Z,77.70
2019-04-01T03:10:10.289Z,77.70
2019-04-01T03:12:39.740Z,77.90
2019-04-01T03:15:09.237Z,77.90
2019-04-01T03:17:44.485Z,78.00
2019-04-01T03:20:13.678Z,78.10
2019-04-01T03:22:42.481Z,78.10
2019-04-01T03:25:11.555Z,78.00
2019-04-01T03:27:40.657Z,78.00
2019-04-01T03:30:09.754Z,78.10
2019-04-01T03:32:44.580Z,78.20
2019-04-01T03:35:10.317Z,78.20
2019-04-01T03:37:39.811Z,78.10
2019-04-01T03:40:08.728Z,78.20
2019-04-01T03:42:37.794Z,78.40
2019-04-01T03:45:07.095Z,78.40
2019-04-01T03:47:35.930Z,78.40
2019-04-01T03:50:11.040Z,78.40
2019-04-01T03:52:39.809Z,78.40
2019-04-01T03:55:08.674Z,78.50
2019-04-01T03:57:37.692Z,78.60
2019-04-01T04:00:06.808Z,78.60
2019-04-01T04:02:36.008Z,78.50
2019-04-01T04:05:05.494Z,78.50
2019-04-01T04:07:34.627Z,78.60
2019-04-01T04:10:04.535Z,78.70
2019-04-01T04:12:33.664Z,78.50
2019-04-01T04:15:02.695Z,78.70
2019-04-01T04:17:31.699Z,78.80
2019-04-01T04:20:00.890Z,78.90
2019-04-01T04:22:29.980Z,78.80
2019-04-01T04:24:59.079Z,78.90
2019-04-01T04:27:28.259Z,78.90
2019-04-01T04:29:57.369Z,78.90
2019-04-01T04:32:26.782Z,78.90
2019-04-01T04:34:57.479Z,79.00
2019-04-01T04:37:26.756Z,79.10
2019-04-01T04:39:55.826Z,79.10
2019-04-01T04:42:24.616Z,79.10
2019-04-01T04:44:53.732Z,79.20
2019-04-01T04:47:22.515Z,79.10
2019-04-01T04:49:51.516Z,79.10
2019-04-01T04:52:20.865Z,79.10
2019-04-01T04:54:49.940Z,79.00
2019-04-01T04:57:20.459Z,79.00
2019-04-01T04:59:49.375Z,79.20
2019-04-01T05:02:18.960Z,79.20
2019-04-01T05:04:47.811Z,79.20
2019-04-01T05:07:17.287Z,79.20
2019-04-01T05:09:46.288Z,79.30
2019-04-01T05:12:15.668Z,79.30
2019-04-01T05:14:44.765Z,79.30
2019-04-01T05:17:14.056Z,79.30
2019-04-01T05:19:43.326Z,79.30
2019-04-01T05:22:13.140Z,79.40
2019-04-01T05:24:42.288Z,79.50
2019-04-01T05:27:14.019Z,79.50
2019-04-01T05:29:44.192Z,79.60
2019-04-01T05:32:16.093Z,79.60
2019-04-01T05:34:46.933Z,79.70
2019-04-01T05:37:16.641Z,79.60
2019-04-01T05:39:46.296Z,79.60
2019-04-01T05:42:15.480Z,79.70
2019-04-01T05:44:45.172Z,79.60
2019-04-01T05:47:14.335Z,79.50
2019-04-01T05:49:43.511Z,79.40
2019-04-01T05:52:12.778Z,79.30
2019-04-01T05:54:42.522Z,79.30
2019-04-01T05:57:11.428Z,79.50
2019-04-01T05:59:40.280Z,79.40
2019-04-01T06:02:09.459Z,79.40
2019-04-01T06:04:38.549Z,79.60
2019-04-01T06:07:07.600Z,79.50
2019-04-01T06:09:36.459Z,79.40
2019-04-01T06:12:05.715Z,79.40
2019-04-01T06:14:34.839Z,79.50
2019-04-01T06:17:03.843Z,79.40
2019-04-01T06:19:32.819Z,79.40
2019-04-01T06:22:02.062Z,79.50
2019-04-01T06:24:31.002Z,79.20
2019-04-01T06:27:00.448Z,79.30
2019-04-01T06:29:29.741Z,79.30
2019-04-01T06:31:58.787Z,79.20
2019-04-01T06:34:27.954Z,79.20
2019-04-01T06:36:57.123Z,79.00
2019-04-01T06:39:26.515Z,78.90
2019-04-01T06:41:55.751Z,78.90
2019-04-01T06:44:24.942Z,78.70
2019-04-01T06:46:54.310Z,78.60
2019-04-01T06:49:23.831Z,78.40
2019-04-01T06:51:52.927Z,78.40
2019-04-01T06:54:22.175Z,78.30
2019-04-01T06:56:51.098Z,78.20
2019-04-01T06:59:20.320Z,78.10
2019-04-01T07:01:49.073Z,78.20
2019-04-01T07:04:18.106Z,78.10
2019-04-01T07:06:50.023Z,77.90
2019-04-01T07:09:23.628Z,78.20
2019-04-01T07:11:52.394Z,78.00
2019-04-01T07:14:21.650Z,77.90
2019-04-01T07:16:50.851Z,77.80
2019-04-01T07:19:20.163Z,77.90
2019-04-01T07:21:49.201Z,77.90
2019-04-01T07:24:18.563Z,77.80
2019-04-01T07:26:47.738Z,77.80
2019-04-01T07:29:17.625Z,77.70
2019-04-01T07:31:48.703Z,77.70
2019-04-01T07:34:17.908Z,77.50
2019-04-01T07:36:47.075Z,77.60
2019-04-01T07:39:16.131Z,77.50
2019-04-01T07:41:46.833Z,77.40
2019-04-01T07:44:15.796Z,77.20
2019-04-01T07:46:45.212Z,77.20
2019-04-01T07:49:14.885Z,77.10
2019-04-01T07:51:43.941Z,77.00
2019-04-01T07:54:13.211Z,76.90
2019-04-01T07:56:42.423Z,76.70
2019-04-01T07:59:11.314Z,76.50
2019-04-01T08:01:40.251Z,76.50
2019-04-01T08:04:09.140Z,76.60
2019-04-01T08:06:38.552Z,76.50
2019-04-01T08:09:07.594Z,76.50
2019-04-01T08:11:36.447Z,76.30
2019-04-01T08:14:05.961Z,77.00
2019-04-01T08:16:35.443Z,76.20
2019-04-01T08:19:04.653Z,76.10
2019-04-01T08:21:33.917Z,75.90
2019-04-01T08:24:03.230Z,75.70
2019-04-01T08:26:32.743Z,75.70
2019-04-01T08:29:01.848Z,75.80
2019-04-01T08:31:30.721Z,75.90
2019-04-01T08:33:59.984Z,75.90
2019-04-01T08:36:30.633Z,75.80
2019-04-01T08:38:59.691Z,75.80
2019-04-01T08:41:28.543Z,75.90
2019-04-01T08:43:58.813Z,75.90
2019-04-01T08:46:27.756Z,75.60
2019-04-01T08:48:56.729Z,75.70
2019-04-01T08:51:25.970Z,75.70
2019-04-01T08:53:55.430Z,75.60
2019-04-01T08:56:24.744Z,74.40
2019-04-01T08:58:54.043Z,74.30
2019-04-01T09:01:34.681Z,74.00
2019-04-01T09:03:54.445Z,74.00
2019-04-01T09:06:23.399Z,73.90
2019-04-01T09:08:54.320Z,73.80
2019-04-01T09:11:23.768Z,73.90
2019-04-01T09:13:53.603Z,74.00
2019-04-01T09:16:23.191Z,73.90
2019-04-01T09:18:52.306Z,73.70
2019-04-01T09:21:21.521Z,73.60
2019-04-01T09:23:52.235Z,74.20
2019-04-01T09:26:21.874Z,73.50
2019-04-01T09:28:50.998Z,73.10
2019-04-01T09:31:20.135Z,73.00
2019-04-01T09:33:49.676Z,73.10
2019-04-01T09:36:18.853Z,73.10
2019-04-01T09:38:48.209Z,73.00
2019-04-01T09:41:17.726Z,73.40
2019-04-01T09:43:46.769Z,72.60
2019-04-01T09:46:15.900Z,72.80
2019-04-01T09:48:44.775Z,72.80
2019-04-01T09:51:20.368Z,72.90
2019-04-01T09:53:49.648Z,72.80
2019-04-01T09:56:18.766Z,72.90
2019-04-01T09:58:47.764Z,72.80
2019-04-01T10:01:16.788Z,72.60
2019-04-01T10:03:46.415Z,72.60
2019-04-01T10:06:15.539Z,73.30
2019-04-01T10:08:44.812Z,72.50
2019-04-01T10:11:13.660Z,72.40
2019-04-01T10:13:42.807Z,72.10
2019-04-01T10:16:11.910Z,72.10
2019-04-01T10:18:40.878Z,72.20
2019-04-01T10:21:10.145Z,71.90
2019-04-01T10:23:39.147Z,71.90
2019-04-01T10:26:08.455Z,72.00
2019-04-01T10:28:37.800Z,72.00
2019-04-01T10:31:06.856Z,71.90
2019-04-01T10:33:35.828Z,71.80
2019-04-01T10:36:05.038Z,71.70
2019-04-01T10:38:33.870Z,71.70
2019-04-01T10:41:03.269Z,71.40
2019-04-01T10:43:32.429Z,71.50
2019-04-01T10:46:01.587Z,71.50
2019-04-01T10:48:31.200Z,71.30
2019-04-01T10:51:00.294Z,71.30
2019-04-01T10:53:31.136Z,71.30
2019-04-01T10:56:00.525Z,71.20
2019-04-01T10:58:30.290Z,71.10
2019-04-01T11:01:00.355Z,71.00
2019-04-01T11:03:29.752Z,70.10
2019-04-01T11:06:01.388Z,70.50
2019-04-01T11:08:31.280Z,70.20
2019-04-01T11:11:01.067Z,70.30
2019-04-01T11:13:30.116Z,70.40
2019-04-01T11:15:59.224Z,70.60
2019-04-01T11:18:28.848Z,70.30
2019-04-01T11:20:59.405Z,70.10
2019-04-01T11:23:28.989Z,69.90
2019-04-01T11:25:57.847Z,69.20
2019-04-01T11:28:27.960Z,70.00
2019-04-01T11:30:57.320Z,69.40
2019-04-01T11:33:27.040Z,69.60
2019-04-01T11:35:55.941Z,69.50
2019-04-01T11:38:24.905Z,69.60
2019-04-01T11:40:54.248Z,69.20
2019-04-01T11:43:23.944Z,69.20
2019-04-01T11:45:53.335Z,68.90
2019-04-01T11:48:22.979Z,68.80
2019-04-01T11:50:51.890Z,69.40
2019-04-01T11:53:21.088Z,68.80
2019-04-01T11:55:49.898Z,68.80
2019-04-01T11:58:19.170Z,68.70
2019-04-01T12:00:48.519Z,68.80
2019-04-01T12:03:17.787Z,68.50
2019-04-01T12:05:47.211Z,68.00
2019-04-01T12:08:16.231Z,67.90
2019-04-01T12:10:45.079Z,67.70
2019-04-01T12:13:14.192Z,67.50
2019-04-01T12:15:43.950Z,66.80
2019-04-01T12:18:13.101Z,67.00
2019-04-01T12:20:42.065Z,66.60
2019-04-01T12:23:11.472Z,67.00
2019-04-01T12:25:40.625Z,67.30
2019-04-01T12:28:09.495Z,67.90
2019-04-01T12:30:38.384Z,66.80
2019-04-01T12:33:07.487Z,67.10
2019-04-01T12:35:38.611Z,66.80
2019-04-01T12:38:07.722Z,66.90
2019-04-01T12:40:38.646Z,66.60
2019-04-01T12:43:09.547Z,66.50
2019-04-01T12:45:39.226Z,66.50
2019-04-01T12:48:09.335Z,66.30
2019-04-01T12:50:38.732Z,65.60
2019-04-01T12:53:08.335Z,65.80
2019-04-01T12:55:38.026Z,65.70
2019-04-01T12:58:07.400Z,66.00
2019-04-01T13:00:37.128Z,65.70
2019-04-01T13:03:06.606Z,65.50
2019-04-01T13:05:35.759Z,65.50
2019-04-01T13:08:04.620Z,65.10
2019-04-01T13:10:35.161Z,65.00
2019-04-01T13:13:04.249Z,64.40
2019-04-01T13:15:34.847Z,64.10
2019-04-01T13:18:04.133Z,64.20
2019-04-01T13:20:38.211Z,63.80
2019-04-01T13:23:04.124Z,64.30
2019-04-01T13:25:34.289Z,64.50
2019-04-01T13:28:03.269Z,64.40
2019-04-01T13:30:32.201Z,64.30
2019-04-01T13:33:01.582Z,64.00
2019-04-01T13:35:30.704Z,63.60
2019-04-01T13:37:59.924Z,63.50
2019-04-01T13:40:29.145Z,63.20
2019-04-01T13:42:59.100Z,63.30
2019-04-01T13:45:31.546Z,63.20
2019-04-01T13:47:58.955Z,63.50
2019-04-01T13:50:28.018Z,63.50
2019-04-01T13:52:57.870Z,63.40
2019-04-01T13:55:27.618Z,63.20
2019-04-01T13:57:57.460Z,62.60
2019-04-01T14:00:27.603Z,63.20
2019-04-01T14:02:56.688Z,63.10
2019-04-01T14:05:26.423Z,63.00
2019-04-01T14:07:55.526Z,62.90
2019-04-01T14:10:24.888Z,62.80
2019-04-01T14:12:54.320Z,62.20
2019-04-01T14:15:23.114Z,62.80
2019-04-01T14:17:52.210Z,62.60
2019-04-01T14:20:22.735Z,62.50
2019-04-01T14:22:53.537Z,61.80
2019-04-01T14:25:25.699Z,62.00
2019-04-01T14:27:55.524Z,61.60
2019-04-01T14:30:25.113Z,62.00
2019-04-01T14:32:54.371Z,62.00
2019-04-01T14:35:23.842Z,61.20
2019-04-01T14:37:53.526Z,61.50
2019-04-01T14:40:22.844Z,61.10
2019-04-01T14:42:51.983Z,61.20
2019-04-01T14:45:22.812Z,60.40
2019-04-01T14:47:57.643Z,60.50
2019-04-01T14:50:22.955Z,60.20
2019-04-01T14:52:52.279Z,60.40
2019-04-01T14:55:24.139Z,60.90
2019-04-01T14:57:54.848Z,60.90
2019-04-01T15:00:24.525Z,60.80
2019-04-01T15:02:53.804Z,59.60
2019-04-01T15:05:23.630Z,59.30
2019-04-01T15:07:52.815Z,58.30
2019-04-01T15:10:21.791Z,59.60
2019-04-01T15:13:04.535Z,60.80
2019-04-01T15:15:21.982Z,61.00
2019-04-01T15:17:51.059Z,60.90
2019-04-01T15:20:20.505Z,60.80
2019-04-01T15:22:49.617Z,60.60
2019-04-01T15:25:18.604Z,60.10
2019-04-01T15:27:47.415Z,60.80
2019-04-01T15:30:16.775Z,60.10
2019-04-01T15:32:46.822Z,59.90
2019-04-01T15:35:15.973Z,60.00
2019-04-01T15:37:48.130Z,60.10
2019-04-01T15:40:18.282Z,60.00
2019-04-01T15:42:47.749Z,59.80
2019-04-01T15:45:16.828Z,59.30
2019-04-01T15:47:45.729Z,57.90
2019-04-01T15:50:27.932Z,58.20
2019-04-01T15:52:45.776Z,58.10
2019-04-01T15:55:14.759Z,58.40
2019-04-01T15:57:44.145Z,58.70
2019-04-01T16:00:13.188Z,58.70
2019-04-01T16:02:42.465Z,58.70
2019-04-01T16:05:11.873Z,59.00
2019-04-01T16:07:41.800Z,59.30
2019-04-01T16:10:11.318Z,59.40
2019-04-01T16:12:40.853Z,59.80
2019-04-01T16:15:10.448Z,59.10
2019-04-01T16:17:39.681Z,59.60
2019-04-01T16:20:08.719Z,59.60
2019-04-01T16:22:37.876Z,59.10
2019-04-01T16:25:07.255Z,59.00
2019-04-01T16:27:36.108Z,60.00
2019-04-01T16:30:05.324Z,59.90
2019-04-01T16:32:34.797Z,59.80
2019-04-01T16:35:03.842Z,60.30
2019-04-01T16:37:33.237Z,60.50
2019-04-01T16:40:05.795Z,60.50
2019-04-01T16:42:33.754Z,60.20
2019-04-01T16:45:02.636Z,60.40
2019-04-01T16:47:31.835Z,60.40
2019-04-01T16:50:00.937Z,60.50
2019-04-01T16:52:30.623Z,60.60
2019-04-01T16:55:02.136Z,60.80
2019-04-01T16:57:31.893Z,60.90
2019-04-01T17:00:00.948Z,61.10
2019-04-01T17:02:32.892Z,60.90
2019-04-01T17:05:04.322Z,61.30
2019-04-01T17:07:34.170Z,61.20
2019-04-01T17:10:04.299Z,61.30
2019-04-01T17:12:34.605Z,61.40
2019-04-01T17:15:04.136Z,61.20
2019-04-01T17:17:33.669Z,61.40
2019-04-01T17:20:02.567Z,61.50
2019-04-01T17:22:32.180Z,61.70
2019-04-01T17:25:01.577Z,61.70
2019-04-01T17:27:30.687Z,61.90
2019-04-01T17:29:59.756Z,62.00
2019-04-01T17:32:28.522Z,62.10
2019-04-01T17:34:58.016Z,62.30
2019-04-01T17:37:27.032Z,62.30
2019-04-01T17:39:56.510Z,62.30
2019-04-01T17:42:25.687Z,62.30
2019-04-01T17:44:56.848Z,62.40
2019-04-01T17:47:27.421Z,62.40
2019-04-01T17:49:56.893Z,62.50
2019-04-01T17:52:25.985Z,62.50
2019-04-01T17:54:54.877Z,62.70
2019-04-01T17:57:23.952Z,62.70
2019-04-01T17:59:52.759Z,62.80
2019-04-01T18:02:27.645Z,62.80
2019-04-01T18:04:56.659Z,62.90
2019-04-01T18:07:25.956Z,62.90
2019-04-01T18:09:54.722Z,62.90
2019-04-01T18:12:24.033Z,62.90
2019-04-01T18:14:53.051Z,63.20
2019-04-01T18:17:22.232Z,63.30
2019-04-01T18:19:51.364Z,63.30
2019-04-01T18:22:20.189Z,63.30
2019-04-01T18:24:49.316Z,63.50
2019-04-01T18:27:18.769Z,63.50
2019-04-01T18:29:47.948Z,63.50
2019-04-01T18:32:17.058Z,63.60
2019-04-01T18:34:46.129Z,63.60
2019-04-01T18:37:15.480Z,63.80
2019-04-01T18:39:48.404Z,63.60
2019-04-01T18:42:15.238Z,63.90
2019-04-01T18:44:44.015Z,63.90
2019-04-01T18:47:13.368Z,63.90
2019-04-01T18:49:42.633Z,64.00
2019-04-01T18:52:11.836Z,64.30
2019-04-01T18:54:40.611Z,64.40
2019-04-01T18:57:09.468Z,64.60
2019-04-01T18:59:38.245Z,64.70
2019-04-01T19:02:07.094Z,64.70
2019-04-01T19:04:36.361Z,64.80
2019-04-01T19:07:05.264Z,64.80
2019-04-01T19:09:34.034Z,64.80
2019-04-01T19:12:04.400Z,64.80
2019-04-01T19:14:33.892Z,64.90
2019-04-01T19:17:02.959Z,65.10
2019-04-01T19:19:31.739Z,65.00
2019-04-01T19:22:00.564Z,65.00
2019-04-01T19:24:29.584Z,65.10
2019-04-01T19:26:58.624Z,65.10
2019-04-01T19:29:27.483Z,65.20
2019-04-01T19:31:56.778Z,65.30
2019-04-01T19:34:26.892Z,65.10
2019-04-01T19:36:56.484Z,65.20
2019-04-01T19:39:25.765Z,65.20
2019-04-01T19:41:54.886Z,65.20
2019-04-01T19:44:23.900Z,65.20
2019-04-01T19:46:53.029Z,65.30
2019-04-01T19:49:21.820Z,65.30
2019-04-01T19:51:50.947Z,65.40
2019-04-01T19:54:30.624Z,65.40
2019-04-01T19:56:50.887Z,65.50
2019-04-01T19:59:21.214Z,65.50
2019-04-01T20:01:50.968Z,65.50
2019-04-01T20:04:20.256Z,65.50
2019-04-01T20:06:49.352Z,65.60
2019-04-01T20:09:20.880Z,65.60
2019-04-01T20:11:53.172Z,65.70
2019-04-01T20:14:22.224Z,65.60
2019-04-01T20:16:51.003Z,65.60
2019-04-01T20:19:20.293Z,65.70
2019-04-01T20:21:49.654Z,65.70
2019-04-01T20:24:19.327Z,65.70
2019-04-01T20:26:48.847Z,65.70
2019-04-01T20:29:17.868Z,65.70
2019-04-01T20:31:46.965Z,65.70
2019-04-01T20:34:20.055Z,65.70
2019-04-01T20:36:46.903Z,65.80
2019-04-01T20:39:16.158Z,65.80
2019-04-01T20:41:45.395Z,65.80
2019-04-01T20:44:14.211Z,65.80
2019-04-01T20:46:43.393Z,65.90
2019-04-01T20:49:12.576Z,65.70
2019-04-01T20:51:41.673Z,65.90
2019-04-01T20:54:10.771Z,65.80
2019-04-01T20:56:39.682Z,65.90
2019-04-01T20:59:10.280Z,65.90
2019-04-01T21:01:39.902Z,65.90
2019-04-01T21:04:09.115Z,65.90
2019-04-01T21:06:37.886Z,66.00
2019-04-01T21:09:08.937Z,65.90
2019-04-01T21:11:39.236Z,66.00
2019-04-01T21:14:09.039Z,66.00
2019-04-01T21:16:38.084Z,65.90
2019-04-01T21:19:06.872Z,65.90
2019-04-01T21:21:35.880Z,66.00
2019-04-01T21:24:05.383Z,65.90
2019-04-01T21:26:34.642Z,66.00
2019-04-01T21:29:03.575Z,66.00
2019-04-01T21:31:32.576Z,66.00
2019-04-01T21:34:01.624Z,66.00
2019-04-01T21:36:30.702Z,66.00
2019-04-01T21:39:01.051Z,66.10
2019-04-01T21:41:30.504Z,66.10
2019-04-01T21:43:59.295Z,67.10
2019-04-01T21:46:28.300Z,67.20
2019-04-01T21:48:57.648Z,67.30
2019-04-01T21:51:26.893Z,67.40
2019-04-01T21:53:55.992Z,67.50
2019-04-01T21:56:24.760Z,67.50
2019-04-01T21:58:53.778Z,67.40
2019-04-01T22:01:22.870Z,67.50
2019-04-01T22:03:52.131Z,67.40
2019-04-01T22:06:21.206Z,67.30
2019-04-01T22:08:50.372Z,67.50
2019-04-01T22:11:19.403Z,67.50
2019-04-01T22:13:48.441Z,67.50
2019-04-01T22:16:18.172Z,67.60
2019-04-01T22:18:47.951Z,67.50
2019-04-01T22:21:17.218Z,67.50
2019-04-01T22:23:46.350Z,67.60
2019-04-01T22:26:15.605Z,67.70
2019-04-01T22:28:44.696Z,67.50
2019-04-01T22:31:15.170Z,67.70
2019-04-01T22:33:44.038Z,67.70
2019-04-01T22:36:13.086Z,67.60
2019-04-01T22:38:42.112Z,67.60
2019-04-01T22:41:11.269Z,67.60
2019-04-01T22:43:40.108Z,67.70
2019-04-01T22:46:08.973Z,67.60
2019-04-01T22:48:37.998Z,67.60
2019-04-01T22:51:08.632Z,67.70
2019-04-01T22:53:38.491Z,67.60
2019-04-01T22:56:07.386Z,67.60
2019-04-01T22:58:36.140Z,67.70
2019-04-01T23:01:05.312Z,67.70
2019-04-01T23:03:34.712Z,67.70
2019-04-01T23:06:03.910Z,68.60
2019-04-01T23:08:33.008Z,68.00
2019-04-01T23:11:02.209Z,68.00
2019-04-01T23:13:31.277Z,67.90
2019-04-01T23:16:00.705Z,67.90
2019-04-01T23:18:30.409Z,67.90
2019-04-01T23:20:59.191Z,68.00
2019-04-01T23:23:28.341Z,68.10
2019-04-01T23:25:57.940Z,68.00
2019-04-01T23:28:26.765Z,68.00
2019-04-01T23:30:58.708Z,67.90
2019-04-01T23:33:27.467Z,67.90
2019-04-01T23:35:56.545Z,68.70
2019-04-01T23:38:25.623Z,68.00
2019-04-01T23:40:54.444Z,68.00
2019-04-01T23:43:23.621Z,68.80
2019-04-01T23:45:52.498Z,68.10
2019-04-01T23:48:21.248Z,68.10
2019-04-01T23:50:50.300Z,68.10
2019-04-01T23:53:19.969Z,68.10
2019-04-01T23:55:49.298Z,68.20
2019-04-01T23:58:18.813Z,68.00
